createdAt,value
2023-03-16T00:01:41.698Z,101071.03
2023-03-16T00:04:08.127Z,101065.69
2023-03-16T00:06:34.423Z,101064.88
2023-03-16T00:09:00.802Z,101065.28
2023-03-16T00:11:27.230Z,101067.94
2023-03-16T00:13:54.709Z,101068.78
2023-03-16T00:16:21.088Z,101067.13
2023-03-16T00:18:47.489Z,101064.25
2023-03-16T00:21:14.693Z,101072.25
2023-03-16T00:23:41.005Z,101065.69
2023-03-16T00:26:09.224Z,101075.16
2023-03-16T00:28:36.144Z,101063.03
2023-03-16T00:31:07.375Z,101067.16
2023-03-16T00:33:33.725Z,101070.00
2023-03-16T00:36:01.089Z,101068.97
2023-03-16T00:38:28.911Z,101078.00
2023-03-16T00:40:55.341Z,101072.47
2023-03-16T00:43:21.986Z,101069.19
2023-03-16T00:45:48.387Z,101071.44
2023-03-16T00:48:14.841Z,101063.25
2023-03-16T00:50:41.508Z,101061.59
2023-03-16T00:53:07.831Z,101062.84
2023-03-16T00:55:34.129Z,101062.81
2023-03-16T00:58:00.457Z,101059.34
2023-03-16T01:00:27.016Z,101059.34
2023-03-16T01:02:54.140Z,101057.28
2023-03-16T01:05:20.485Z,101048.88
2023-03-16T01:07:46.807Z,101049.28
2023-03-16T01:10:13.367Z,101040.28
2023-03-16T01:12:39.738Z,101032.06
2023-03-16T01:15:06.716Z,101033.13
2023-03-16T01:17:33.026Z,101030.03
2023-03-16T01:19:59.377Z,101028.81
2023-03-16T01:22:25.720Z,101022.66
2023-03-16T01:24:52.030Z,101034.34
2023-03-16T01:27:18.355Z,101035.38
2023-03-16T01:29:44.675Z,101037.81
2023-03-16T01:32:11.301Z,101031.25
2023-03-16T01:34:37.618Z,101032.47
2023-03-16T01:37:03.996Z,101029.19
2023-03-16T01:39:30.577Z,101030.00
2023-03-16T01:41:56.893Z,101033.25
2023-03-16T01:44:28.054Z,101027.97
2023-03-16T01:46:54.381Z,101025.09
2023-03-16T01:49:29.200Z,101029.19
2023-03-16T01:52:10.066Z,101022.03
2023-03-16T01:54:45.885Z,101013.63
2023-03-16T01:57:19.189Z,101003.78
2023-03-16T01:59:52.684Z,100999.88
2023-03-16T02:02:22.902Z,100997.63
2023-03-16T02:04:59.736Z,100990.25
2023-03-16T02:07:28.757Z,100994.53
2023-03-16T02:09:59.045Z,100983.72
2023-03-16T02:12:25.648Z,100976.75
2023-03-16T02:14:52.263Z,100972.25
2023-03-16T02:17:21.742Z,100958.31
2023-03-16T02:20:21.331Z,100960.38
2023-03-16T02:22:49.779Z,100959.13
2023-03-16T02:25:18.521Z,100957.50
2023-03-16T02:28:06.054Z,100959.13
2023-03-16T02:30:32.750Z,100956.88
2023-03-16T02:32:59.205Z,100961.19
2023-03-16T02:35:25.746Z,100965.69
2023-03-16T02:37:52.083Z,100955.66
2023-03-16T02:40:24.372Z,100949.31
2023-03-16T02:43:19.090Z,100947.06
2023-03-16T02:45:55.174Z,100939.06
2023-03-16T02:48:27.074Z,100939.44
2023-03-16T02:50:54.402Z,100934.31
2023-03-16T02:53:21.320Z,100940.88
2023-03-16T02:55:47.672Z,100935.72
2023-03-16T02:58:15.817Z,100936.13
2023-03-16T03:00:42.350Z,100933.91
2023-03-16T03:03:09.334Z,100931.88
2023-03-16T03:05:36.405Z,100935.13
2023-03-16T03:08:03.035Z,100930.25
2023-03-16T03:10:29.672Z,100928.19
2023-03-16T03:12:56.284Z,100925.94
2023-03-16T03:15:23.170Z,100934.13
2023-03-16T03:17:49.967Z,100928.41
2023-03-16T03:20:16.482Z,100930.06
2023-03-16T03:22:44.917Z,100928.19
2023-03-16T03:25:13.395Z,100919.78
2023-03-16T03:27:41.020Z,100933.31
2023-03-16T03:30:09.007Z,100931.06
2023-03-16T03:32:35.469Z,100937.81
2023-03-16T03:35:01.811Z,100944.38
2023-03-16T03:37:28.181Z,100945.22
2023-03-16T03:39:54.528Z,100945.41
2023-03-16T03:42:20.861Z,100934.75
2023-03-16T03:44:47.149Z,100931.28
2023-03-16T03:47:13.513Z,100927.19
2023-03-16T03:49:39.810Z,100930.03
2023-03-16T03:52:06.171Z,100926.16
2023-03-16T03:54:32.556Z,100926.75
2023-03-16T03:56:59.006Z,100930.25
2023-03-16T03:59:25.360Z,100922.06
2023-03-16T04:01:51.749Z,100920.00
2023-03-16T04:04:18.090Z,100927.56
2023-03-16T04:06:44.402Z,100921.03
2023-03-16T04:09:10.727Z,100916.94
2023-03-16T04:11:37.511Z,100912.44
2023-03-16T04:14:04.209Z,100907.31
2023-03-16T04:16:31.801Z,100906.69
2023-03-16T04:18:58.174Z,100911.19
2023-03-16T04:21:24.593Z,100921.88
2023-03-16T04:23:51.157Z,100927.16
2023-03-16T04:26:17.449Z,100920.63
2023-03-16T04:28:43.780Z,100922.03
2023-03-16T04:31:10.806Z,100922.25
2023-03-16T04:33:38.852Z,100920.41
2023-03-16T04:36:06.658Z,100916.53
2023-03-16T04:38:33.558Z,100917.75
2023-03-16T04:41:00.957Z,100916.94
2023-03-16T04:43:27.342Z,100917.75
2023-03-16T04:45:53.770Z,100910.59
2023-03-16T04:48:20.398Z,100921.44
2023-03-16T04:50:48.498Z,100921.84
2023-03-16T04:53:14.853Z,100924.09
2023-03-16T04:55:41.164Z,100926.16
2023-03-16T04:58:07.652Z,100916.50
2023-03-16T05:00:34.041Z,100913.44
2023-03-16T05:03:00.435Z,100914.44
2023-03-16T05:05:26.824Z,100924.06
2023-03-16T05:07:53.142Z,100916.28
2023-03-16T05:10:19.459Z,100906.25
2023-03-16T05:12:45.879Z,100908.25
2023-03-16T05:15:12.308Z,100909.88
2023-03-16T05:17:38.622Z,100902.44
2023-03-16T05:20:05.444Z,100900.78
2023-03-16T05:22:31.736Z,100901.41
2023-03-16T05:24:58.047Z,100894.59
2023-03-16T05:27:24.393Z,100893.16
2023-03-16T05:29:50.706Z,100900.72
2023-03-16T05:32:17.004Z,100892.69
2023-03-16T05:34:43.423Z,100894.53
2023-03-16T05:37:10.374Z,100887.47
2023-03-16T05:39:36.843Z,100884.41
2023-03-16T05:42:03.325Z,100886.03
2023-03-16T05:44:29.717Z,100882.50
2023-03-16T05:46:56.192Z,100872.72
2023-03-16T05:49:22.533Z,100873.66
2023-03-16T05:51:48.945Z,100879.66
2023-03-16T05:54:15.257Z,100875.72
2023-03-16T05:56:41.710Z,100866.00
2023-03-16T05:59:08.475Z,100873.44
2023-03-16T06:01:34.805Z,100873.69
2023-03-16T06:04:01.253Z,100870.38
2023-03-16T06:06:27.605Z,100870.16
2023-03-16T06:08:54.200Z,100876.69
2023-03-16T06:11:20.531Z,100874.13
2023-03-16T06:13:46.917Z,100864.38
2023-03-16T06:16:13.398Z,100867.69
2023-03-16T06:18:40.538Z,100866.19
2023-03-16T06:21:06.877Z,100864.28
2023-03-16T06:23:33.766Z,100863.34
2023-03-16T06:26:00.189Z,100854.44
2023-03-16T06:28:27.207Z,100851.06
2023-03-16T06:30:54.534Z,100853.13
2023-03-16T06:33:21.070Z,100853.44
2023-03-16T06:35:47.424Z,100865.16
2023-03-16T06:38:14.396Z,100858.41
2023-03-16T06:40:40.807Z,100863.25
2023-03-16T06:43:07.821Z,100859.53
2023-03-16T06:45:34.256Z,100866.44
2023-03-16T06:48:00.732Z,100861.03
2023-03-16T06:50:28.353Z,100865.78
2023-03-16T06:52:54.952Z,100865.03
2023-03-16T06:55:21.254Z,100862.00
2023-03-16T06:57:47.548Z,100872.78
2023-03-16T07:00:14.758Z,100868.19
2023-03-16T07:02:41.481Z,100884.75
2023-03-16T07:05:08.819Z,100878.78
2023-03-16T07:07:35.414Z,100878.88
2023-03-16T07:10:01.782Z,100879.16
2023-03-16T07:12:28.222Z,100881.25
2023-03-16T07:14:54.558Z,100881.75
2023-03-16T07:17:20.865Z,100878.81
2023-03-16T07:19:47.169Z,100884.44
2023-03-16T07:22:13.469Z,100880.69
2023-03-16T07:24:39.774Z,100881.63
2023-03-16T07:27:06.209Z,100885.59
2023-03-16T07:29:32.631Z,100882.75
2023-03-16T07:31:58.967Z,100875.81
2023-03-16T07:34:25.306Z,100881.88
2023-03-16T07:36:51.620Z,100881.84
2023-03-16T07:39:18.418Z,100888.75
2023-03-16T07:41:44.713Z,100893.44
2023-03-16T07:44:11.039Z,100893.44
2023-03-16T07:46:37.335Z,100888.53
2023-03-16T07:49:03.711Z,100885.97
2023-03-16T07:51:30.008Z,100883.56
2023-03-16T07:53:56.314Z,100887.38
2023-03-16T07:56:22.596Z,100886.66
2023-03-16T07:58:48.904Z,100894.00
2023-03-16T08:01:16.089Z,100890.66
2023-03-16T08:03:42.400Z,100899.34
2023-03-16T08:06:08.749Z,100893.81
2023-03-16T08:08:35.153Z,100887.63
2023-03-16T08:11:01.487Z,100895.72
2023-03-16T08:13:27.833Z,100884.47
2023-03-16T08:15:54.404Z,100883.47
2023-03-16T08:18:20.722Z,100882.38
2023-03-16T08:20:47.023Z,100881.28
2023-03-16T08:23:13.330Z,100869.44
2023-03-16T08:25:39.618Z,100874.69
2023-03-16T08:28:06.183Z,100865.28
2023-03-16T08:30:32.809Z,100871.25
2023-03-16T08:32:59.268Z,100863.16
2023-03-16T08:35:25.644Z,100872.19
2023-03-16T08:37:51.988Z,100874.00
2023-03-16T08:40:18.492Z,100872.94
2023-03-16T08:42:44.835Z,100876.13
2023-03-16T08:45:13.918Z,100876.19
2023-03-16T08:47:41.430Z,100880.06
2023-03-16T08:50:08.993Z,100869.91
2023-03-16T08:52:35.497Z,100871.13
2023-03-16T08:55:04.216Z,100871.31
2023-03-16T08:57:31.250Z,100867.38
2023-03-16T08:59:57.594Z,100866.56
2023-03-16T09:02:23.991Z,100865.78
2023-03-16T09:04:50.332Z,100863.94
2023-03-16T09:07:16.895Z,100868.09
2023-03-16T09:09:43.235Z,100869.31
2023-03-16T09:12:09.710Z,100865.66
2023-03-16T09:14:36.013Z,100875.41
2023-03-16T09:17:02.401Z,100876.63
2023-03-16T09:19:34.824Z,100870.16
2023-03-16T09:22:07.158Z,100872.56
2023-03-16T09:24:33.462Z,100873.22
2023-03-16T09:26:59.808Z,100867.22
2023-03-16T09:29:26.118Z,100858.91
2023-03-16T09:31:52.508Z,100860.63
2023-03-16T09:34:18.952Z,100859.59
2023-03-16T09:36:45.245Z,100865.66
2023-03-16T09:39:11.823Z,100859.03
2023-03-16T09:41:55.339Z,100859.81
2023-03-16T09:44:32.449Z,100858.84
2023-03-16T09:47:01.565Z,100856.91
2023-03-16T09:49:35.638Z,100846.84
2023-03-16T09:52:17.666Z,100853.41
2023-03-16T09:55:18.094Z,100854.50
2023-03-16T09:57:46.218Z,100841.59
2023-03-16T10:00:23.148Z,100849.19
2023-03-16T10:03:04.846Z,100841.06
2023-03-16T10:05:32.338Z,100849.97
2023-03-16T10:08:12.441Z,100848.16
2023-03-16T10:10:49.684Z,100842.50
2023-03-16T10:13:22.178Z,100849.53
2023-03-16T10:15:50.533Z,100848.72
2023-03-16T10:18:23.802Z,100840.09
2023-03-16T10:20:52.413Z,100831.41
2023-03-16T10:23:24.078Z,100825.47
2023-03-16T10:25:55.852Z,100828.16
2023-03-16T10:28:24.812Z,100824.66
2023-03-16T10:30:53.661Z,100825.16
2023-03-16T10:33:31.761Z,100825.44
2023-03-16T10:35:58.021Z,100826.00
2023-03-16T10:38:39.348Z,100833.31
2023-03-16T10:41:17.899Z,100830.03
2023-03-16T10:43:51.367Z,100831.38
2023-03-16T10:46:19.712Z,100822.19
2023-03-16T10:49:00.410Z,100821.56
2023-03-16T10:51:30.587Z,100815.94
2023-03-16T10:54:23.072Z,100818.38
2023-03-16T10:56:49.445Z,100807.56
2023-03-16T10:59:27.660Z,100799.41
2023-03-16T11:01:54.177Z,100805.31
2023-03-16T11:04:20.550Z,100806.34
2023-03-16T11:06:56.049Z,100799.44
2023-03-16T11:09:34.710Z,100803.66
2023-03-16T11:12:13.578Z,100796.06
2023-03-16T11:14:43.660Z,100799.34
2023-03-16T11:17:18.520Z,100783.91
2023-03-16T11:19:51.197Z,100776.31
2023-03-16T11:22:21.767Z,100769.13
2023-03-16T11:25:03.319Z,100756.34
2023-03-16T11:27:29.581Z,100765.44
2023-03-16T11:30:16.199Z,100755.09
2023-03-16T11:32:48.664Z,100762.47
2023-03-16T11:35:18.536Z,100749.16
2023-03-16T11:38:01.770Z,100772.59
2023-03-16T11:40:40.393Z,100773.03
2023-03-16T11:43:39.766Z,100769.19
2023-03-16T11:46:24.263Z,100771.34
2023-03-16T11:48:57.985Z,100765.41
2023-03-16T11:52:02.434Z,100753.56
2023-03-16T11:54:57.841Z,100748.22
2023-03-16T11:57:51.239Z,100743.69
2023-03-16T12:00:31.220Z,100748.22
2023-03-16T12:03:48.264Z,100747.31
2023-03-16T12:06:52.114Z,100751.16
2023-03-16T12:09:42.459Z,100746.94
2023-03-16T12:12:20.755Z,100751.22
2023-03-16T12:15:10.745Z,100756.69
2023-03-16T12:17:37.714Z,100747.22
2023-03-16T12:20:15.549Z,100732.06
2023-03-16T12:22:51.762Z,100726.34
2023-03-16T12:25:25.312Z,100730.69
2023-03-16T12:27:57.471Z,100731.50
2023-03-16T12:30:59.600Z,100727.16
2023-03-16T12:33:47.753Z,100710.56
2023-03-16T12:36:30.437Z,100714.78
2023-03-16T12:39:06.274Z,100701.69
2023-03-16T12:42:06.147Z,100701.09
2023-03-16T12:45:00.097Z,100688.53
2023-03-16T12:47:41.298Z,100695.09
2023-03-16T12:50:11.210Z,100689.78
2023-03-16T12:52:43.129Z,100682.47
2023-03-16T12:55:17.041Z,100669.66
2023-03-16T12:57:45.438Z,100666.56
2023-03-16T13:00:14.108Z,100665.69
2023-03-16T13:02:59.326Z,100664.56
2023-03-16T13:05:30.870Z,100665.47
2023-03-16T13:08:08.334Z,100655.31
2023-03-16T13:10:35.304Z,100659.94
2023-03-16T13:13:14.686Z,100654.38
2023-03-16T13:15:42.704Z,100651.69
2023-03-16T13:18:08.949Z,100648.53
2023-03-16T13:20:59.522Z,100643.72
2023-03-16T13:23:58.286Z,100638.97
2023-03-16T13:26:42.399Z,100626.97
2023-03-16T13:29:23.547Z,100625.97
2023-03-16T13:31:51.498Z,100632.19
2023-03-16T13:34:33.232Z,100624.31
2023-03-16T13:37:00.890Z,100625.16
2023-03-16T13:39:29.796Z,100632.06
2023-03-16T13:42:04.118Z,100626.69
2023-03-16T13:44:31.881Z,100623.38
2023-03-16T13:47:03.614Z,100614.13
2023-03-16T13:49:29.951Z,100618.19
2023-03-16T13:51:56.564Z,100611.91
2023-03-16T13:54:30.664Z,100613.59
2023-03-16T13:57:03.697Z,100600.53
2023-03-16T13:59:30.548Z,100591.38
2023-03-16T14:01:59.753Z,100594.84
2023-03-16T14:04:29.490Z,100592.66
2023-03-16T14:07:01.109Z,100576.34
2023-03-16T14:09:35.683Z,100576.13
2023-03-16T14:12:02.471Z,100573.81
2023-03-16T14:14:31.766Z,100560.63
2023-03-16T14:17:03.920Z,100560.84
2023-03-16T14:19:30.341Z,100551.81
2023-03-16T14:21:56.678Z,100545.81
2023-03-16T14:24:38.023Z,100534.97
2023-03-16T14:27:16.709Z,100529.28
2023-03-16T14:29:44.114Z,100522.94
2023-03-16T14:32:29.443Z,100519.09
2023-03-16T14:35:15.432Z,100522.81
2023-03-16T14:37:42.202Z,100514.59
2023-03-16T14:40:23.964Z,100511.44
2023-03-16T14:42:50.886Z,100510.69
2023-03-16T14:45:17.647Z,100506.47
2023-03-16T14:47:46.508Z,100508.03
2023-03-16T14:50:24.349Z,100509.00
2023-03-16T14:52:51.713Z,100508.72
2023-03-16T14:55:20.162Z,100508.38
2023-03-16T14:57:46.779Z,100498.28
2023-03-16T15:00:15.580Z,100489.00
2023-03-16T15:02:45.536Z,100482.06
2023-03-16T15:05:21.448Z,100480.88
2023-03-16T15:07:53.680Z,100479.81
2023-03-16T15:10:25.357Z,100471.38
2023-03-16T15:12:52.084Z,100457.28
2023-03-16T15:15:21.007Z,100448.63
2023-03-16T15:17:49.435Z,100446.53
2023-03-16T15:20:18.797Z,100449.53
2023-03-16T15:22:45.475Z,100447.19
2023-03-16T15:25:35.464Z,100444.53
2023-03-16T15:28:17.814Z,100440.50
2023-03-16T15:30:55.582Z,100446.69
2023-03-16T15:33:22.166Z,100444.94
2023-03-16T15:35:50.413Z,100448.22
2023-03-16T15:38:22.234Z,100431.94
2023-03-16T15:40:48.857Z,100435.63
2023-03-16T15:43:16.990Z,100425.47
2023-03-16T15:45:44.200Z,100414.53
2023-03-16T15:48:11.227Z,100406.19
2023-03-16T15:50:40.345Z,100405.63
2023-03-16T15:53:30.667Z,100395.00
2023-03-16T15:56:04.318Z,100394.94
2023-03-16T15:58:32.083Z,100395.78
2023-03-16T16:01:01.190Z,100388.78
2023-03-16T16:03:27.805Z,100397.63
2023-03-16T16:05:54.538Z,100390.78
2023-03-16T16:08:21.291Z,100381.72
2023-03-16T16:10:49.560Z,100380.16
2023-03-16T16:13:37.502Z,100385.81
2023-03-16T16:16:11.655Z,100377.63
2023-03-16T16:18:38.012Z,100374.94
2023-03-16T16:21:06.967Z,100379.69
2023-03-16T16:23:33.330Z,100392.59
2023-03-16T16:26:03.367Z,100380.56
2023-03-16T16:28:32.518Z,100380.13
2023-03-16T16:31:00.520Z,100384.31
2023-03-16T16:33:32.221Z,100390.47
2023-03-16T16:36:01.753Z,100381.97
2023-03-16T16:38:28.253Z,100379.84
2023-03-16T16:40:57.366Z,100369.53
2023-03-16T16:43:46.804Z,100362.78
2023-03-16T16:46:16.004Z,100359.56
2023-03-16T16:48:47.730Z,100357.75
2023-03-16T16:51:19.832Z,100366.91
2023-03-16T16:53:47.180Z,100363.09
2023-03-16T16:56:15.313Z,100355.28
2023-03-16T16:58:42.931Z,100361.06
2023-03-16T17:01:14.901Z,100350.78
2023-03-16T17:03:42.054Z,100351.34
2023-03-16T17:06:16.806Z,100352.50
2023-03-16T17:08:47.306Z,100356.56
2023-03-16T17:11:21.369Z,100356.31
2023-03-16T17:13:48.439Z,100354.19
2023-03-16T17:16:17.705Z,100350.47
2023-03-16T17:18:44.907Z,100349.34
2023-03-16T17:21:17.170Z,100341.56
2023-03-16T17:23:43.451Z,100345.88
2023-03-16T17:26:15.190Z,100342.94
2023-03-16T17:29:02.112Z,100351.34
2023-03-16T17:31:33.950Z,100354.66
2023-03-16T17:34:01.142Z,100354.91
2023-03-16T17:36:28.268Z,100360.34
2023-03-16T17:38:54.948Z,100362.75
2023-03-16T17:41:25.307Z,100345.00
2023-03-16T17:43:52.675Z,100350.13
2023-03-16T17:46:20.947Z,100340.66
2023-03-16T17:48:47.764Z,100345.28
2023-03-16T17:51:17.609Z,100346.16
2023-03-16T17:53:44.807Z,100341.00
2023-03-16T17:56:20.929Z,100339.41
2023-03-16T17:58:49.361Z,100335.41
2023-03-16T18:01:15.939Z,100339.41
2023-03-16T18:03:42.735Z,100337.25
2023-03-16T18:06:18.700Z,100336.75
2023-03-16T18:08:46.754Z,100337.31
2023-03-16T18:11:25.811Z,100339.47
2023-03-16T18:13:52.271Z,100334.63
2023-03-16T18:16:22.578Z,100332.75
2023-03-16T18:18:49.856Z,100335.72
2023-03-16T18:21:19.395Z,100333.00
2023-03-16T18:23:46.213Z,100336.81
2023-03-16T18:26:12.808Z,100333.56
2023-03-16T18:28:39.516Z,100331.97
2023-03-16T18:31:12.390Z,100339.50
2023-03-16T18:33:40.899Z,100335.19
2023-03-16T18:36:15.590Z,100337.38
2023-03-16T18:38:44.218Z,100342.50
2023-03-16T18:41:17.174Z,100344.13
2023-03-16T18:43:44.137Z,100340.31
2023-03-16T18:46:26.463Z,100336.28
2023-03-16T18:48:55.422Z,100338.97
2023-03-16T18:51:21.973Z,100342.75
2023-03-16T18:53:48.576Z,100342.75
2023-03-16T18:56:20.995Z,100343.53
2023-03-16T18:58:49.014Z,100347.59
2023-03-16T19:01:30.012Z,100348.41
2023-03-16T19:03:59.001Z,100352.19
2023-03-16T19:06:29.650Z,100338.97
2023-03-16T19:09:13.707Z,100344.91
2023-03-16T19:11:43.926Z,100334.66
2023-03-16T19:14:18.897Z,100338.16
2023-03-16T19:16:45.629Z,100340.03
2023-03-16T19:19:12.361Z,100339.50
2023-03-16T19:21:39.707Z,100341.09
2023-03-16T19:24:06.925Z,100330.88
2023-03-16T19:26:34.383Z,100342.19
2023-03-16T19:29:02.037Z,100333.56
2023-03-16T19:31:30.624Z,100328.97
2023-03-16T19:33:57.053Z,100325.22
2023-03-16T19:36:26.172Z,100326.81
2023-03-16T19:38:53.176Z,100321.16
2023-03-16T19:41:30.879Z,100305.00
2023-03-16T19:44:03.661Z,100310.09
2023-03-16T19:46:30.382Z,100314.69
2023-03-16T19:48:56.714Z,100311.19
2023-03-16T19:51:23.101Z,100310.38
2023-03-16T19:53:49.433Z,100310.38
2023-03-16T19:56:20.589Z,100307.69
2023-03-16T19:58:49.567Z,100298.50
2023-03-16T20:01:21.883Z,100298.50
2023-03-16T20:03:49.367Z,100310.66
2023-03-16T20:06:22.049Z,100302.31
2023-03-16T20:08:49.566Z,100292.88
2023-03-16T20:11:28.934Z,100302.88
2023-03-16T20:13:57.013Z,100302.06
2023-03-16T20:16:29.591Z,100294.75
2023-03-16T20:18:58.265Z,100300.66
2023-03-16T20:21:25.064Z,100294.72
2023-03-16T20:23:52.740Z,100286.66
2023-03-16T20:26:25.506Z,100291.53
2023-03-16T20:28:52.069Z,100289.34
2023-03-16T20:31:21.986Z,100286.66
2023-03-16T20:33:49.489Z,100292.09
2023-03-16T20:36:16.164Z,100288.28
2023-03-16T20:38:42.724Z,100296.91
2023-03-16T20:41:28.026Z,100288.81
2023-03-16T20:43:54.948Z,100286.66
2023-03-16T20:46:32.692Z,100275.09
2023-03-16T20:48:59.670Z,100274.53
2023-03-16T20:51:27.209Z,100275.06
2023-03-16T20:53:53.505Z,100268.63
2023-03-16T20:56:23.446Z,100256.50
2023-03-16T20:58:51.401Z,100250.00
2023-03-16T21:01:19.908Z,100249.47
2023-03-16T21:03:47.995Z,100248.38
2023-03-16T21:06:31.419Z,100243.53
2023-03-16T21:09:00.505Z,100233.84
2023-03-16T21:11:35.434Z,100237.91
2023-03-16T21:14:01.988Z,100230.06
2023-03-16T21:16:29.195Z,100234.94
2023-03-16T21:18:55.626Z,100222.78
2023-03-16T21:21:22.916Z,100224.16
2023-03-16T21:23:49.468Z,100224.09
2023-03-16T21:26:18.706Z,100219.00
2023-03-16T21:28:54.816Z,100209.25
2023-03-16T21:31:21.655Z,100210.63
2023-03-16T21:33:48.845Z,100212.50
2023-03-16T21:36:19.081Z,100203.13
2023-03-16T21:38:46.603Z,100196.09
2023-03-16T21:41:13.070Z,100196.31
2023-03-16T21:43:39.488Z,100189.03
2023-03-16T21:46:19.345Z,100189.06
2023-03-16T21:48:48.105Z,100183.97
2023-03-16T21:51:16.997Z,100186.94
2023-03-16T21:53:43.658Z,100190.16
2023-03-16T21:56:13.179Z,100179.09
2023-03-16T21:58:39.474Z,100175.00
2023-03-16T22:01:06.035Z,100179.09
2023-03-16T22:03:50.194Z,100186.41
2023-03-16T22:06:17.578Z,100178.25
2023-03-16T22:08:44.098Z,100175.84
2023-03-16T22:11:17.650Z,100171.28
2023-03-16T22:13:44.131Z,100179.13
2023-03-16T22:16:16.191Z,100164.78
2023-03-16T22:18:43.249Z,100155.59
2023-03-16T22:21:35.016Z,100146.47
2023-03-16T22:24:02.871Z,100148.59
2023-03-16T22:26:29.655Z,100150.25
2023-03-16T22:28:56.624Z,100148.38
2023-03-16T22:31:37.038Z,100155.66
2023-03-16T22:34:04.989Z,100160.78
2023-03-16T22:36:33.049Z,100156.47
2023-03-16T22:39:02.357Z,100154.06
2023-03-16T22:41:30.221Z,100155.66
2023-03-16T22:43:56.974Z,100156.19
2023-03-16T22:46:28.100Z,100145.94
2023-03-16T22:48:55.828Z,100139.50
2023-03-16T22:51:38.540Z,100129.78
2023-03-16T22:54:08.548Z,100127.94
2023-03-16T22:56:35.314Z,100122.00
2023-03-16T22:59:05.240Z,100113.13
2023-03-16T23:01:36.932Z,100109.91
2023-03-16T23:04:03.491Z,100106.97
2023-03-16T23:06:31.037Z,100105.59
2023-03-16T23:08:57.453Z,100103.97
2023-03-16T23:11:29.626Z,100104.53
2023-03-16T23:13:56.284Z,100102.66
2023-03-16T23:16:29.418Z,100107.47
2023-03-16T23:18:56.057Z,100106.97
2023-03-16T23:21:24.353Z,100102.94
2023-03-16T23:24:03.154Z,100106.19
2023-03-16T23:26:30.698Z,100105.13
2023-03-16T23:28:57.157Z,100114.03
2023-03-16T23:31:25.014Z,100112.97
2023-03-16T23:33:51.381Z,100120.78
2023-03-16T23:36:20.309Z,100121.84
2023-03-16T23:38:47.823Z,100115.94
2023-03-16T23:41:17.178Z,100119.97
2023-03-16T23:43:45.670Z,100121.31
2023-03-16T23:46:14.157Z,100113.78
2023-03-16T23:48:42.257Z,100112.16
2023-03-16T23:51:20.499Z,100109.47
2023-03-16T23:53:46.885Z,100107.84
2023-03-16T23:56:13.221Z,100102.47
2023-03-16T23:58:39.747Z,100106.22
